Time;durP1;ratioP1;P1;durP2;ratioP2;P2;SDS_P1;SDS_P2;PMS_P1;PMS_P2;Temp;Humidity;BMP_temperature;BMP_pressure;BME280_temperature;BME280_humidity;BME280_pressure;Samples;Min_cycle;Max_cycle;Signal;HPM_P1;HPM_P2
2022/12/10 00:03:04;;;;;;;14.50;5.22;;;13.60;99.90;;;;;;5013523;28;20041;-72
2022/12/10 00:06:18;;;;;;;18.10;4.88;;;13.60;99.90;;;;;;5013750;28;20488;-72
2022/12/10 00:09:23;;;;;;;14.02;4.93;;;13.60;99.90;;;;;;5013530;28;20048;-71
2022/12/10 00:12:28;;;;;;;20.75;6.22;;;13.60;99.90;;;;;;5013706;28;20507;-72
2022/12/10 00:15:36;;;;;;;15.95;6.18;;;13.60;99.90;;;;;;5011815;28;20053;-72
2022/12/10 00:18:40;;;;;;;14.15;4.18;;;13.50;99.90;;;;;;5013442;28;20073;-72
2022/12/10 00:21:45;;;;;;;11.77;4.28;;;13.50;99.90;;;;;;5013783;28;20048;-72
2022/12/10 00:24:49;;;;;;;12.75;4.20;;;13.50;99.90;;;;;;5012795;28;20041;-72
2022/12/10 00:27:53;;;;;;;13.82;4.57;;;13.50;99.90;;;;;;5013738;28;20049;-71
2022/12/10 00:31:05;;;;;;;15.88;5.28;;;13.50;99.90;;;;;;5013291;28;20507;-71
2022/12/10 00:34:10;;;;;;;;;;;13.60;99.90;;;;;;5023837;28;20064;-72
2022/12/10 00:37:14;;;;;;;12.73;3.35;;;13.60;99.90;;;;;;5013287;28;19921;-71
2022/12/10 00:40:19;;;;;;;11.75;4.07;;;13.60;99.90;;;;;;5012387;28;20053;-71
2022/12/10 00:43:23;;;;;;;13.18;3.10;;;13.60;99.90;;;;;;5012784;28;20428;-71
2022/12/10 00:46:28;;;;;;;11.55;3.25;;;13.50;99.90;;;;;;5013168;28;20511;-71
2022/12/10 00:49:33;;;;;;;13.25;3.92;;;13.50;99.90;;;;;;5012756;28;20053;-71
2022/12/10 00:52:36;;;;;;;14.63;4.10;;;13.50;99.90;;;;;;5023580;28;20049;-71
2022/12/10 00:55:42;;;;;;;19.50;4.47;;;13.50;99.90;;;;;;5013136;28;20037;-71
2022/12/10 00:58:48;;;;;;;14.15;3.58;;;13.50;99.90;;;;;;5011889;28;20049;-72
2022/12/10 01:01:52;;;;;;;14.82;3.50;;;13.50;99.90;;;;;;5012856;28;20056;-71
2022/12/10 01:04:57;;;;;;;12.27;3.88;;;13.50;99.90;;;;;;5022675;28;20041;-71
2022/12/10 01:08:01;;;;;;;14.35;2.55;;;13.50;99.90;;;;;;5012706;28;20370;-71
2022/12/10 01:11:06;;;;;;;9.30;2.50;;;13.50;99.90;;;;;;5012589;28;20045;-71
2022/12/10 01:14:14;;;;;;;8.55;2.80;;;13.50;99.90;;;;;;5022504;28;20049;-71
2022/12/10 01:17:18;;;;;;;9.75;2.88;;;13.60;99.90;;;;;;5012665;28;20051;-71
2022/12/10 01:20:22;;;;;;;8.57;3.80;;;13.60;99.90;;;;;;5012189;28;20511;-72
2022/12/10 01:23:27;;;;;;;10.52;3.20;;;13.60;99.90;;;;;;5012004;28;20515;-72
2022/12/10 01:26:33;;;;;;;5.93;2.72;;;13.60;99.90;;;;;;5022938;28;20389;-72
2022/12/10 01:29:38;;;;;;;11.15;3.17;;;13.60;99.90;;;;;;5022829;28;20432;-71
2022/12/10 01:32:46;;;;;;;9.18;3.08;;;13.60;99.90;;;;;;5022644;28;20056;-71
2022/12/10 01:35:50;;;;;;;13.93;5.03;;;13.60;99.90;;;;;;5012097;28;20045;-72
2022/12/10 01:38:54;;;;;;;14.55;4.10;;;13.60;99.90;;;;;;5012384;28;20053;-71
2022/12/10 01:41:59;;;;;;;14.25;2.75;;;13.60;99.90;;;;;;5011803;28;20191;-71
2022/12/10 01:45:08;;;;;;;14.40;3.30;;;13.60;99.90;;;;;;5011510;28;20041;-71
2022/12/10 01:48:12;;;;;;;11.60;3.40;;;13.60;99.90;;;;;;5011814;28;20037;-71
2022/12/10 01:51:17;;;;;;;10.77;3.47;;;13.60;99.90;;;;;;5011862;28;20405;-71
2022/12/10 01:54:30;;;;;;;10.52;3.13;;;13.60;99.90;;;;;;5021314;28;20049;-72
2022/12/10 01:57:34;;;;;;;15.47;3.80;;;13.60;99.90;;;;;;5012011;28;20045;-71
2022/12/10 02:01:08;;;;;;;19.55;4.85;;;13.60;99.90;;;;;;5022504;28;20037;-72
2022/12/10 02:04:27;;;;;;;15.50;5.20;;;13.50;99.90;;;;;;5011714;28;20503;-72
2022/12/10 02:07:49;;;;;;;9.02;3.47;;;13.50;99.90;;;;;;5022494;28;20053;-71
2022/12/10 02:11:19;;;;;;;11.27;3.90;;;13.50;99.90;;;;;;5021734;28;20049;-72
2022/12/10 02:14:41;;;;;;;11.98;3.72;;;13.50;99.90;;;;;;5021438;28;20045;-71
2022/12/10 02:17:49;;;;;;;15.18;3.63;;;13.50;99.90;;;;;;5021908;28;20045;-71
2022/12/10 02:21:03;;;;;;;13.20;2.85;;;13.40;99.90;;;;;;5022036;28;20385;-71
2022/12/10 02:24:12;;;;;;;9.52;3.50;;;13.40;99.90;;;;;;5021536;28;20049;-72
2022/12/10 02:27:29;;;;;;;10.60;3.78;;;13.40;99.90;;;;;;5021934;28;20104;-71
2022/12/10 02:30:34;;;;;;;9.05;3.20;;;13.50;99.90;;;;;;4999281;28;20504;-71
2022/12/10 02:33:42;;;;;;;18.27;3.25;;;13.50;99.90;;;;;;5009605;28;20045;-71
2022/12/10 02:36:51;;;;;;;14.55;3.28;;;13.50;99.90;;;;;;5010911;28;20045;-71
2022/12/10 02:39:58;;;;;;;8.52;2.88;;;13.50;99.90;;;;;;5021577;28;20053;-71
2022/12/10 02:43:07;;;;;;;13.98;2.70;;;13.40;99.90;;;;;;5009888;28;20057;-71
2022/12/10 02:46:11;;;;;;;16.25;3.00;;;13.40;99.90;;;;;;5011522;28;20053;-72
2022/12/10 02:49:17;;;;;;;13.80;3.78;;;13.40;99.90;;;;;;5021573;28;20400;-72
2022/12/10 02:52:24;;;;;;;11.35;2.83;;;13.20;99.90;;;;;;5010851;28;20400;-72
2022/12/10 02:55:53;;;;;;;15.63;3.38;;;13.10;99.90;;;;;;5021093;28;20049;-72
2022/12/10 02:59:04;;;;;;;8.00;3.47;;;13.10;99.90;;;;;;5021148;28;20037;-72
2022/12/10 03:02:19;;;;;;;8.30;2.85;;;13.20;99.90;;;;;;5021298;28;20057;-72
2022/12/10 03:05:34;;;;;;;8.30;2.88;;;13.10;99.90;;;;;;5009417;28;20033;-72
2022/12/10 03:08:59;;;;;;;11.10;3.30;;;13.10;99.90;;;;;;5021150;28;20385;-72
2022/12/10 03:12:29;;;;;;;11.60;3.42;;;13.10;99.90;;;;;;5010557;28;20037;-72
2022/12/10 03:15:37;;;;;;;12.02;4.03;;;13.20;99.90;;;;;;5010612;28;20044;-71
2022/12/10 03:18:45;;;;;;;7.35;2.80;;;13.20;99.90;;;;;;5010687;28;20037;-71
2022/12/10 03:21:51;;;;;;;15.85;3.13;;;13.20;99.90;;;;;;5010737;28;20396;-71
2022/12/10 03:24:58;;;;;;;7.82;2.75;;;13.20;99.90;;;;;;5025127;28;20049;-71
2022/12/10 03:28:01;;;;;;;12.35;3.10;;;13.20;99.90;;;;;;5015115;28;20053;-72
2022/12/10 03:31:09;;;;;;;16.63;4.05;;;13.20;99.90;;;;;;5014813;28;20049;-72
2022/12/10 03:34:14;;;;;;;12.70;4.07;;;13.20;99.90;;;;;;5014048;28;20496;-72
2022/12/10 03:37:21;;;;;;;16.05;3.63;;;13.30;99.90;;;;;;5014561;28;20053;-71
2022/12/10 03:40:26;;;;;;;7.25;3.20;;;13.30;99.90;;;;;;5014362;28;20041;-71
2022/12/10 03:43:30;;;;;;;15.05;2.92;;;13.20;99.90;;;;;;5013718;28;20053;-72
2022/12/10 03:46:34;;;;;;;9.65;3.03;;;13.10;99.90;;;;;;5014251;28;20065;-72
2022/12/10 03:49:38;;;;;;;11.98;3.33;;;13.10;99.90;;;;;;5014249;28;20045;-72
2022/12/10 03:52:42;;;;;;;13.07;3.25;;;13.00;99.90;;;;;;5013952;28;20049;-72
2022/12/10 03:55:46;;;;;;;8.63;3.00;;;12.90;99.90;;;;;;5013869;28;20396;-71
2022/12/10 03:58:50;;;;;;;11.98;3.55;;;12.80;99.90;;;;;;5013999;28;20049;-72
2022/12/10 04:01:54;;;;;;;12.55;3.40;;;12.70;99.90;;;;;;5013671;28;20041;-71
2022/12/10 04:04:58;;;;;;;9.70;4.00;;;12.60;99.90;;;;;;5013494;28;20452;-72
2022/12/10 04:08:03;;;;;;;12.65;3.80;;;12.60;99.90;;;;;;5013952;28;20052;-71
2022/12/10 04:11:09;;;;;;;17.27;4.80;;;12.50;99.90;;;;;;5014136;28;20049;-72
2022/12/10 04:17:36;;;;;;;9.60;3.75;;;12.50;99.90;;;;;;5013145;28;20033;-72
2022/12/10 04:27:37;;;;;;;14.55;5.47;;;12.40;99.90;;;;;;5013718;28;20276;-72
2022/12/10 04:30:41;;;;;;;12.85;5.38;;;12.40;99.90;;;;;;5013621;28;20515;-72
2022/12/10 04:33:45;;;;;;;12.52;6.18;;;12.40;99.90;;;;;;5012618;28;20496;-72
2022/12/10 04:36:50;;;;;;;16.08;6.72;;;12.40;99.90;;;;;;5013201;28;20493;-72
2022/12/10 04:39:54;;;;;;;10.60;4.15;;;12.50;99.90;;;;;;5013481;28;20036;-72
2022/12/10 04:42:59;;;;;;;30.10;5.43;;;12.40;99.90;;;;;;5013163;28;20044;-72
2022/12/10 04:46:03;;;;;;;122.53;10.15;;;12.30;99.90;;;;;;5013326;28;20044;-72
2022/12/10 04:49:07;;;;;;;483.00;26.80;;;12.20;99.90;;;;;;5013186;28;20046;-72
2022/12/10 04:52:13;;;;;;;573.75;39.40;;;12.20;99.90;;;;;;5013078;28;20057;-72
2022/12/10 04:55:18;;;;;;;27.17;5.53;;;12.10;99.90;;;;;;5012587;28;20492;-72
2022/12/10 04:58:22;;;;;;;345.48;23.88;;;12.20;99.90;;;;;;5013161;28;20053;-72
2022/12/10 05:01:27;;;;;;;54.95;7.78;;;12.20;99.90;;;;;;5012848;28;20069;-71
2022/12/10 05:04:31;;;;;;;490.98;28.30;;;12.20;99.90;;;;;;5012029;28;20057;-72
2022/12/10 05:07:36;;;;;;;336.60;21.77;;;12.30;99.90;;;;;;5012734;28;20049;-72
2022/12/10 05:10:40;;;;;;;234.02;16.73;;;12.40;99.90;;;;;;5012789;28;20080;-72
2022/12/10 05:13:44;;;;;;;122.00;11.20;;;12.40;99.90;;;;;;5011860;28;20045;-72
2022/12/10 05:16:50;;;;;;;123.88;10.52;;;12.40;99.90;;;;;;5012696;28;20049;-72
2022/12/10 05:19:54;;;;;;;36.17;6.35;;;12.50;99.90;;;;;;5012563;28;20053;-72
2022/12/10 05:26:23;;;;;;;7.05;4.57;;;12.50;99.90;;;;;;5011253;28;20397;-72
2022/12/10 05:29:28;;;;;;;6.60;4.50;;;12.60;99.90;;;;;;5012469;28;20041;-72
2022/12/10 05:32:33;;;;;;;7.28;4.45;;;12.50;99.90;;;;;;5012295;28;20396;-72
2022/12/10 05:35:37;;;;;;;9.13;5.07;;;12.50;99.90;;;;;;5012149;28;20045;-72
2022/12/10 05:38:42;;;;;;;6.57;4.47;;;12.60;99.90;;;;;;5012360;28;20048;-71
2022/12/10 05:41:46;;;;;;;8.82;5.10;;;12.60;99.90;;;;;;5012290;28;20037;-72
2022/12/10 05:44:50;;;;;;;75.50;8.40;;;12.60;99.90;;;;;;5011330;28;20393;-72
2022/12/10 05:47:54;;;;;;;9.48;4.85;;;12.60;99.90;;;;;;5010827;28;20508;-72
2022/12/10 05:50:58;;;;;;;10.55;4.93;;;12.50;99.90;;;;;;5012200;28;20052;-71
2022/12/10 05:54:05;;;;;;;7.25;5.00;;;12.60;99.90;;;;;;5011369;28;20053;-71
2022/12/10 05:57:09;;;;;;;7.82;4.43;;;12.50;99.90;;;;;;5011767;28;20037;-71
2022/12/10 06:00:14;;;;;;;7.25;4.25;;;12.50;99.90;;;;;;5011747;28;20041;-71
2022/12/10 06:03:18;;;;;;;5.60;3.50;;;12.50;99.90;;;;;;5011189;28;20503;-72
2022/12/10 06:06:28;;;;;;;11.30;4.32;;;12.50;99.90;;;;;;5011938;28;20068;-71
2022/12/10 06:09:32;;;;;;;8.93;4.40;;;12.40;99.90;;;;;;5010983;28;20504;-71
2022/12/10 06:12:37;;;;;;;13.20;5.25;;;12.30;99.90;;;;;;5011582;28;20488;-71
2022/12/10 06:15:41;;;;;;;9.70;3.83;;;12.10;99.90;;;;;;5011198;28;20401;-71
2022/12/10 06:18:45;;;;;;;9.00;2.90;;;12.00;99.90;;;;;;5011490;28;20053;-71
2022/12/10 06:21:49;;;;;;;5.07;2.08;;;12.10;99.90;;;;;;5009907;28;20045;-71
2022/12/10 06:24:53;;;;;;;6.55;2.55;;;12.10;99.90;;;;;;5010642;28;20057;-72
2022/12/10 06:27:57;;;;;;;4.32;1.98;;;12.20;99.90;;;;;;5011072;28;20052;-71
2022/12/10 06:31:01;;;;;;;9.80;2.40;;;12.20;99.90;;;;;;5011426;28;20519;-72
2022/12/10 06:34:06;;;;;;;3.85;1.48;;;12.20;99.90;;;;;;5010215;28;20057;-71
2022/12/10 06:37:10;;;;;;;3.17;1.50;;;12.20;99.90;;;;;;5011078;28;20064;-72
2022/12/10 06:40:15;;;;;;;5.38;1.83;;;12.10;99.90;;;;;;5011112;28;20045;-72
2022/12/10 06:43:19;;;;;;;5.93;1.90;;;12.10;99.90;;;;;;5010771;28;20048;-71
2022/12/10 06:46:23;;;;;;;3.78;1.70;;;12.10;99.90;;;;;;5010996;28;20040;-72
2022/12/10 06:49:27;;;;;;;20.17;3.75;;;12.10;99.90;;;;;;5011080;28;20056;-72
2022/12/10 06:52:31;;;;;;;341.42;18.45;;;11.90;99.90;;;;;;5011002;28;20037;-72
2022/12/10 06:55:38;;;;;;;362.42;23.48;;;11.90;99.90;;;;;;5010376;28;20049;-72
2022/12/10 06:58:43;;;;;;;316.85;19.58;;;11.80;99.90;;;;;;5010984;28;20049;-72
2022/12/10 07:01:47;;;;;;;100.22;10.90;;;11.80;99.90;;;;;;5010960;28;20045;-72
2022/12/10 07:04:51;;;;;;;384.52;23.00;;;11.80;99.90;;;;;;5010343;28;20057;-72
2022/12/10 07:07:55;;;;;;;178.43;15.52;;;11.80;99.90;;;;;;5011046;28;20053;-72
2022/12/10 07:11:02;;;;;;;35.22;9.70;;;11.80;99.90;;;;;;5010929;28;20049;-72
2022/12/10 07:14:07;;;;;;;22.52;9.32;;;11.90;99.90;;;;;;5010193;28;20049;-72
2022/12/10 07:17:12;;;;;;;31.70;9.80;;;11.90;99.90;;;;;;5010977;28;20488;-72
2022/12/10 07:20:16;;;;;;;69.57;11.90;;;12.00;99.90;;;;;;5010675;28;20048;-72
2022/12/10 07:23:20;;;;;;;17.88;9.32;;;12.00;99.90;;;;;;5010197;28;20037;-72
2022/12/10 07:26:25;;;;;;;23.90;9.70;;;12.10;99.90;;;;;;5010524;28;20041;-72
2022/12/10 07:29:29;;;;;;;15.43;9.38;;;12.10;99.90;;;;;;5010478;28;20049;-72
2022/12/10 07:32:33;;;;;;;24.00;13.23;;;12.10;99.90;;;;;;5010519;28;20056;-72
2022/12/10 07:35:39;;;;;;;18.95;8.07;;;12.20;99.90;;;;;;5009816;28;20037;-72
2022/12/10 07:38:43;;;;;;;15.68;8.43;;;12.20;99.90;;;;;;5010352;28;20072;-72
2022/12/10 07:41:52;;;;;;;12.60;9.75;;;12.10;99.90;;;;;;5010653;28;20045;-72
2022/12/10 07:44:55;;;;;;;14.48;8.52;;;12.10;99.90;;;;;;5009735;28;20507;-72
2022/12/10 07:48:00;;;;;;;10.82;7.97;;;12.10;99.90;;;;;;5010393;28;20046;-72
2022/12/10 07:51:05;;;;;;;14.07;7.80;;;12.10;99.90;;;;;;5010037;28;20041;-72
2022/12/10 07:54:09;;;;;;;12.85;7.10;;;12.20;99.90;;;;;;5009609;28;20096;-72
2022/12/10 07:57:14;;;;;;;13.50;7.10;;;12.20;99.90;;;;;;5010201;28;20389;-72
2022/12/10 08:00:18;;;;;;;10.20;6.03;;;12.20;99.90;;;;;;5010435;28;20041;-72
2022/12/10 08:03:23;;;;;;;9.82;6.35;;;12.20;99.90;;;;;;5009768;28;20052;-72
2022/12/10 08:06:28;;;;;;;13.88;8.25;;;12.20;99.90;;;;;;5009883;28;20037;-72
2022/12/10 08:09:33;;;;;;;12.25;8.52;;;12.30;99.90;;;;;;5012728;28;20044;-72
2022/12/10 08:12:37;;;;;;;10.88;6.45;;;12.30;99.90;;;;;;5013811;28;20044;-72
2022/12/10 08:15:41;;;;;;;11.82;7.60;;;12.40;99.90;;;;;;5013450;28;20425;-72
2022/12/10 08:18:45;;;;;;;10.98;5.80;;;12.40;99.90;;;;;;5014123;28;20049;-72
2022/12/10 08:21:48;;;;;;;10.43;6.55;;;12.50;99.90;;;;;;5013912;28;20057;-72
2022/12/10 08:24:53;;;;;;;14.60;5.63;;;12.50;99.90;;;;;;5013290;28;20052;-72
2022/12/10 08:27:59;;;;;;;18.77;7.15;;;12.40;99.90;;;;;;5013556;28;20041;-72
2022/12/10 08:31:06;;;;;;;28.90;7.95;;;12.40;99.90;;;;;;5013521;28;20392;-72
2022/12/10 08:34:16;;;;;;;13.32;7.03;;;12.40;99.90;;;;;;5012934;28;20496;-72
2022/12/10 08:37:20;;;;;;;13.00;6.97;;;12.50;99.90;;;;;;5013296;28;20041;-72
2022/12/10 08:40:23;;;;;;;11.95;6.38;;;12.70;99.90;;;;;;5013314;28;20069;-73
2022/12/10 08:43:27;;;;;;;12.88;7.00;;;12.80;99.90;;;;;;5012791;28;20041;-72
2022/12/10 08:46:32;;;;;;;12.68;6.38;;;12.90;99.90;;;;;;5013250;28;20037;-72
2022/12/10 08:49:36;;;;;;;8.68;5.53;;;12.80;99.90;;;;;;5013025;28;20041;-72
2022/12/10 08:52:40;;;;;;;14.45;6.25;;;12.90;99.90;;;;;;5013005;28;20045;-72
2022/12/10 08:55:44;;;;;;;10.02;6.28;;;13.00;99.90;;;;;;5012442;28;20389;-72
2022/12/10 08:58:48;;;;;;;8.38;5.18;;;13.10;99.90;;;;;;5012997;28;20045;-72
2022/12/10 09:01:52;;;;;;;14.88;5.32;;;13.30;99.90;;;;;;5012789;28;20413;-72
2022/12/10 09:04:57;;;;;;;12.40;6.90;;;13.30;99.90;;;;;;5012177;28;20052;-72
2022/12/10 09:08:02;;;;;;;6.20;3.92;;;13.40;99.90;;;;;;5012296;28;20420;-72
2022/12/10 09:11:15;;;;;;;6.93;4.00;;;13.30;99.90;;;;;;5012675;28;20041;-72
2022/12/10 09:14:19;;;;;;;8.48;4.57;;;13.40;99.90;;;;;;5012116;28;20037;-72
2022/12/10 09:17:23;;;;;;;8.32;4.90;;;13.40;99.90;;;;;;5011523;28;20056;-72
2022/12/10 09:20:27;;;;;;;8.27;5.28;;;13.40;99.90;;;;;;5011323;28;20045;-73
2022/12/10 09:23:32;;;;;;;10.10;6.18;;;13.30;99.90;;;;;;5012109;28;20049;-72
2022/12/10 09:26:39;;;;;;;9.45;4.72;;;13.20;99.90;;;;;;5012308;28;20045;-72
2022/12/10 09:29:44;;;;;;;9.68;5.57;;;13.30;99.90;;;;;;5012331;28;20049;-72
2022/12/10 09:32:48;;;;;;;10.55;6.15;;;13.20;99.90;;;;;;5012371;28;20037;-72
2022/12/10 09:35:52;;;;;;;12.65;6.45;;;13.10;99.90;;;;;;5011769;28;20041;-72
2022/12/10 09:38:56;;;;;;;9.55;6.90;;;13.10;99.90;;;;;;5011917;28;20045;-72
2022/12/10 09:42:21;;;;;;;10.30;6.53;;;13.10;99.90;;;;;;5012375;28;20045;-72
2022/12/10 09:45:39;;;;;;;16.80;8.55;;;13.20;99.90;;;;;;5012632;28;20048;-72
2022/12/10 09:49:27;;;;;;;15.88;7.93;;;13.20;99.90;;;;;;5012295;28;20044;-72
2022/12/10 09:52:41;;;;;;;12.00;6.93;;;13.20;99.90;;;;;;5011973;28;20073;-72
2022/12/10 09:55:48;;;;;;;11.23;7.10;;;13.30;99.90;;;;;;5011789;28;20504;-72
2022/12/10 09:58:55;;;;;;;10.90;7.07;;;13.20;99.90;;;;;;5011672;28;20037;-72
2022/12/10 10:02:11;;;;;;;11.00;6.85;;;13.20;99.90;;;;;;5011886;28;20389;-72
2022/12/10 10:05:21;;;;;;;9.57;6.05;;;13.30;99.90;;;;;;5011135;28;20044;-72
2022/12/10 10:08:36;;;;;;;14.02;7.60;;;13.40;99.90;;;;;;5011431;28;20053;-72
2022/12/10 10:11:41;;;;;;;8.45;5.10;;;13.40;99.90;;;;;;5011942;28;20492;-71
2022/12/10 10:14:44;;;;;;;9.63;5.53;;;13.50;99.90;;;;;;5011034;28;20040;-71
2022/12/10 10:17:52;;;;;;;9.40;5.25;;;13.50;99.90;;;;;;5011241;28;20045;-72
2022/12/10 10:20:58;;;;;;;7.72;5.13;;;13.50;99.90;;;;;;5011447;28;20041;-71
2022/12/10 10:24:03;;;;;;;7.72;4.85;;;13.50;99.90;;;;;;5011003;28;20045;-72
2022/12/10 10:27:23;;;;;;;8.32;4.95;;;13.50;99.90;;;;;;5011196;28;20040;-72
2022/12/10 10:30:27;;;;;;;11.13;6.22;;;13.50;99.90;;;;;;5011310;28;20040;-72
2022/12/10 10:33:49;;;;;;;8.88;6.75;;;13.50;99.90;;;;;;5010983;28;20507;-72
2022/12/10 10:36:57;;;;;;;11.18;6.22;;;13.60;99.90;;;;;;5010682;28;20495;-72
2022/12/10 10:40:01;;;;;;;10.77;6.18;;;13.60;99.90;;;;;;5010426;28;20105;-72
2022/12/10 10:43:05;;;;;;;10.07;6.25;;;13.70;99.90;;;;;;5009919;28;20496;-71
2022/12/10 10:46:16;;;;;;;11.57;6.47;;;13.80;99.90;;;;;;5010082;28;20057;-72
2022/12/10 10:49:31;;;;;;;11.65;7.88;;;13.90;99.90;;;;;;5010771;28;20052;-72
2022/12/10 10:52:41;;;;;;;12.25;7.63;;;14.00;99.90;;;;;;5010340;28;20049;-72
2022/12/10 10:55:45;;;;;;;11.50;8.57;;;14.10;99.90;;;;;;5010763;28;20393;-72
2022/12/10 10:59:01;;;;;;;10.95;7.28;;;14.00;99.90;;;;;;5010253;28;20049;-72
2022/12/10 11:02:18;;;;;;;11.88;7.70;;;14.00;99.90;;;;;;5010271;28;20041;-72
2022/12/10 11:05:33;;;;;;;11.68;7.25;;;14.00;99.90;;;;;;5009775;28;20041;-72
2022/12/10 11:08:41;;;;;;;12.05;6.90;;;14.20;99.90;;;;;;5009960;28;20597;-72
2022/12/10 11:11:50;;;;;;;10.73;6.95;;;14.20;99.90;;;;;;5010015;28;20096;-72
2022/12/10 11:14:55;;;;;;;9.50;6.40;;;14.20;99.90;;;;;;5009414;28;20053;-72
2022/12/10 11:18:00;;;;;;;10.02;5.75;;;14.20;99.90;;;;;;5009680;28;20049;-72
2022/12/10 11:21:16;;;;;;;8.35;6.43;;;14.20;99.90;;;;;;5009809;28;20045;-72
2022/12/10 11:24:20;;;;;;;9.60;6.65;;;14.10;99.90;;;;;;5018921;28;20049;-72
2022/12/10 11:27:43;;;;;;;10.65;6.45;;;13.90;99.90;;;;;;5009724;28;20049;-72
2022/12/10 11:31:33;;;;;;;7.93;6.03;;;13.80;99.90;;;;;;5009722;28;20121;-72
2022/12/10 11:34:56;;;;;;;5.85;4.85;;;13.80;99.90;;;;;;5009100;28;20401;-72
2022/12/10 11:38:28;;;;;;;5.93;4.80;;;13.80;99.90;;;;;;4939422;28;2036213;-72
2022/12/10 11:41:53;;;;;;;6.10;4.50;;;13.70;99.90;;;;;;5008968;28;20045;-72
2022/12/10 11:44:57;;;;;;;8.02;4.57;;;13.80;99.90;;;;;;5013492;28;20056;-72
2022/12/10 11:48:26;;;;;;;8.15;4.65;;;13.90;99.90;;;;;;5023404;28;20045;-72
2022/12/10 11:51:43;;;;;;;7.18;4.80;;;13.90;99.90;;;;;;5015304;28;20052;-72
2022/12/10 11:55:00;;;;;;;9.00;5.00;;;14.00;99.90;;;;;;5014434;28;20051;-73
2022/12/10 11:58:41;;;;;;;10.02;5.78;;;14.00;99.90;;;;;;5014752;28;20048;-72
2022/12/10 12:02:20;;;;;;;6.38;3.97;;;14.10;99.90;;;;;;5014914;28;20510;-72
2022/12/10 12:05:37;;;;;;;6.30;4.47;;;14.10;99.90;;;;;;5014550;28;20060;-72
2022/12/10 12:08:51;;;;;;;6.53;4.75;;;14.00;99.90;;;;;;5015028;28;20516;-72
2022/12/10 12:12:04;;;;;;;12.98;5.13;;;13.90;99.90;;;;;;5014950;28;20048;-72
2022/12/10 12:15:16;;;;;;;8.60;4.40;;;13.90;99.90;;;;;;5014336;28;20057;-72
2022/12/10 12:18:33;;;;;;;;;;;13.80;99.90;;;;;;5014987;28;20045;-72
2022/12/10 12:21:38;;;;;;;9.73;4.97;;;13.70;99.90;;;;;;5014507;28;19910;-72
2022/12/10 12:24:46;;;;;;;8.60;5.07;;;13.70;99.90;;;;;;5024135;28;20053;-72
2022/12/10 12:28:04;;;;;;;7.45;5.25;;;13.70;99.90;;;;;;5014340;28;20056;-73
2022/12/10 12:31:35;;;;;;;7.20;4.95;;;13.70;99.90;;;;;;5014315;28;20495;-72
2022/12/10 12:34:49;;;;;;;6.68;4.78;;;13.60;99.90;;;;;;5013488;28;20499;-72
2022/12/10 12:38:03;;;;;;;7.25;4.18;;;13.50;99.90;;;;;;5014294;28;20048;-72
2022/12/10 12:41:14;;;;;;;6.40;3.67;;;13.40;99.90;;;;;;5013892;28;20049;-72
2022/12/10 12:44:56;;;;;;;9.45;3.72;;;13.30;99.90;;;;;;5013360;28;20405;-72
2022/12/10 12:48:23;;;;;;;5.95;3.17;;;13.30;99.90;;;;;;5014034;28;20045;-73
2022/12/10 12:51:38;;;;;;;3.47;2.90;;;13.30;99.90;;;;;;5015497;28;20037;-71
2022/12/10 12:54:42;;;;;;;5.78;3.55;;;13.30;99.90;;;;;;5013407;28;20064;-72
2022/12/10 12:58:01;;;;;;;8.68;3.10;;;13.20;99.90;;;;;;5014116;28;20049;-72
2022/12/10 13:01:43;;;;;;;5.15;3.20;;;13.20;99.90;;;;;;5013870;28;20037;-71
2022/12/10 13:04:48;;;;;;;3.85;2.22;;;13.20;99.90;;;;;;5013272;28;20484;-72
2022/12/10 13:08:16;;;;;;;6.18;3.05;;;13.20;99.90;;;;;;5013842;28;20048;-72
2022/12/10 13:11:29;;;;;;;7.38;3.38;;;13.10;99.90;;;;;;5013680;28;20068;-72
2022/12/10 13:14:55;;;;;;;7.72;3.22;;;13.00;99.90;;;;;;5012894;28;20041;-72
2022/12/10 13:18:12;;;;;;;6.57;3.42;;;13.00;99.90;;;;;;5013445;28;20048;-72
2022/12/10 13:21:29;;;;;;;7.60;3.20;;;13.00;99.90;;;;;;5013580;28;20052;-71
2022/12/10 13:24:39;;;;;;;6.10;3.28;;;12.90;99.90;;;;;;5012727;28;20416;-72
2022/12/10 13:28:21;;;;;;;5.88;3.35;;;12.90;99.90;;;;;;5013550;28;20056;-72
2022/12/10 13:31:28;;;;;;;6.53;3.60;;;12.90;99.90;;;;;;5013615;28;20057;-71
2022/12/10 13:34:36;;;;;;;5.30;3.38;;;12.80;99.90;;;;;;5012659;28;20057;-72
2022/12/10 13:37:50;;;;;;;10.73;4.70;;;12.90;99.90;;;;;;5012492;28;20072;-71
2022/12/10 13:44:47;;;;;;;7.78;3.60;;;12.80;99.90;;;;;;5012116;28;20125;-72
2022/12/10 13:48:31;;;;;;;5.88;3.45;;;12.80;99.90;;;;;;5012706;28;20037;-72
2022/12/10 13:51:48;;;;;;;7.03;3.20;;;12.80;99.90;;;;;;5012675;28;20041;-72
2022/12/10 13:55:11;;;;;;;6.70;3.30;;;12.90;99.90;;;;;;5011839;28;20053;-72
2022/12/10 13:58:25;;;;;;;8.63;2.80;;;12.90;99.90;;;;;;5012474;28;20049;-72
2022/12/10 14:01:36;;;;;;;10.48;4.43;;;12.90;99.90;;;;;;5022917;28;20044;-71
2022/12/10 14:05:02;;;;;;;11.00;5.13;;;12.90;99.90;;;;;;5012187;28;20057;-72
2022/12/10 14:08:15;;;;;;;52.78;33.78;;;12.90;99.90;;;;;;5012826;28;20058;-72
2022/12/10 14:11:27;;;;;;;8.68;4.13;;;12.90;99.90;;;;;;5012833;28;20117;-72
2022/12/10 14:14:42;;;;;;;6.57;3.58;;;12.90;99.90;;;;;;5011164;28;20049;-71
2022/12/10 14:18:08;;;;;;;15.18;7.30;;;12.90;99.90;;;;;;5012346;28;20049;-72
2022/12/10 14:21:15;;;;;;;16.65;8.57;;;12.90;99.90;;;;;;5012110;28;20476;-71
2022/12/10 14:24:29;;;;;;;20.00;10.80;;;12.70;99.90;;;;;;5011920;28;20045;-71
2022/12/10 14:27:35;;;;;;;26.05;15.20;;;12.60;99.90;;;;;;5011919;28;20049;-72
2022/12/10 14:30:46;;;;;;;19.80;12.25;;;12.60;99.90;;;;;;5012032;28;20044;-72
2022/12/10 14:33:52;;;;;;;12.85;7.13;;;12.50;99.90;;;;;;5011623;28;20045;-72
2022/12/10 14:37:01;;;;;;;14.27;4.50;;;12.50;99.90;;;;;;5011808;28;20049;-72
2022/12/10 14:40:07;;;;;;;40.10;5.85;;;12.40;99.90;;;;;;5011763;28;20061;-71
2022/12/10 14:43:20;;;;;;;120.43;12.38;;;12.40;99.90;;;;;;5011564;28;20045;-71
2022/12/10 14:46:29;;;;;;;198.23;15.68;;;12.40;99.90;;;;;;5011604;28;20049;-71
2022/12/10 14:49:50;;;;;;;8.98;6.80;;;12.40;99.90;;;;;;5011708;28;20121;-72
2022/12/10 14:52:53;;;;;;;7.35;5.40;;;12.30;99.90;;;;;;5011731;28;20056;-71
2022/12/10 14:56:04;;;;;;;9.10;6.55;;;12.30;99.90;;;;;;5011533;28;20049;-71
2022/12/10 14:59:38;;;;;;;10.57;6.57;;;12.40;99.90;;;;;;5011726;28;20409;-71
2022/12/10 15:02:46;;;;;;;9.18;6.03;;;12.50;99.90;;;;;;5011405;28;20044;-72
2022/12/10 15:06:02;;;;;;;12.95;5.82;;;12.50;99.90;;;;;;5011643;28;20053;-71
2022/12/10 15:09:15;;;;;;;13.27;9.30;;;12.60;99.90;;;;;;5011716;28;20057;-71
2022/12/10 15:12:23;;;;;;;17.23;10.73;;;12.60;99.90;;;;;;5011437;28;20049;-71
2022/12/10 15:15:39;;;;;;;19.75;11.90;;;12.50;99.90;;;;;;5011002;28;20052;-71
2022/12/10 15:18:45;;;;;;;30.30;17.23;;;12.60;99.90;;;;;;5010446;28;20045;-71
2022/12/10 15:21:57;;;;;;;32.55;19.23;;;12.60;99.90;;;;;;5011139;28;20397;-71
2022/12/10 15:25:39;;;;;;;34.55;21.58;;;12.50;99.90;;;;;;5010841;28;20045;-72
2022/12/10 15:28:43;;;;;;;34.75;22.33;;;12.40;99.90;;;;;;5010969;28;20056;-71
2022/12/10 15:31:54;;;;;;;26.08;16.25;;;12.20;99.90;;;;;;5011228;28;20053;-71
2022/12/10 15:35:01;;;;;;;27.42;16.35;;;12.20;99.90;;;;;;5010908;28;20381;-71
2022/12/10 15:38:10;;;;;;;22.83;14.68;;;12.00;99.90;;;;;;5010878;28;20045;-71
2022/12/10 15:41:44;;;;;;;20.92;12.90;;;12.00;99.90;;;;;;5011228;28;20045;-71
2022/12/10 15:44:56;;;;;;;19.27;11.90;;;11.90;99.90;;;;;;5010405;28;20045;-71
2022/12/10 15:47:59;;;;;;;10.32;7.25;;;11.90;99.90;;;;;;5011020;28;20057;-71
2022/12/10 15:51:04;;;;;;;12.43;6.05;;;11.80;99.90;;;;;;5012515;28;20044;-72
2022/12/10 15:54:26;;;;;;;9.43;5.50;;;11.70;99.90;;;;;;5026384;28;20056;-71
2022/12/10 15:57:38;;;;;;;8.88;5.22;;;11.50;99.90;;;;;;5008310;28;20044;-71
2022/12/10 16:00:46;;;;;;;9.98;4.53;;;11.50;99.90;;;;;;5010301;28;20048;-71
2022/12/10 16:03:51;;;;;;;10.98;7.38;;;11.40;99.90;;;;;;5009647;28;20045;-71
2022/12/10 16:06:56;;;;;;;13.18;9.20;;;11.40;99.90;;;;;;5010260;28;20057;-71
2022/12/10 16:10:00;;;;;;;38.90;21.13;;;11.40;99.90;;;;;;5010272;28;20492;-71
2022/12/10 16:13:09;;;;;;;43.67;20.65;;;11.30;99.90;;;;;;5010226;28;20052;-71
2022/12/10 16:16:14;;;;;;;22.60;13.38;;;11.40;99.90;;;;;;5010202;28;20049;-71
2022/12/10 16:19:19;;;;;;;14.27;8.15;;;11.40;99.90;;;;;;5010310;28;20488;-71
2022/12/10 16:22:22;;;;;;;20.60;10.48;;;11.50;99.90;;;;;;5010189;28;20045;-72
2022/12/10 16:25:29;;;;;;;23.48;15.07;;;11.50;99.90;;;;;;5010148;28;20385;-71
2022/12/10 16:28:33;;;;;;;16.95;11.27;;;11.60;99.90;;;;;;5010038;28;20069;-71
2022/12/10 16:31:37;;;;;;;19.38;16.67;;;11.60;99.90;;;;;;5013670;28;20519;-71
2022/12/10 16:34:42;;;;;;;23.00;20.02;;;11.60;99.90;;;;;;5013563;28;20052;-71